PWSweather.com
Personal Weather Stations
Station Observations
EMMBROOK1
Emmbrook, WokinghamGB

EmmbrookWokinghamGB

Lat: 51.42698, Lon: -0.850575

Elevation: 144

Station Type: WH1081

http://www.wokinghamweather.co.uk

High Low Average
Temperature 44.6°F7.0°C 32.2°F0.1°C 40.0°F4.4°C
Dew Point 42.8°F6.0°C 29.6°F-1.3°C 37.3°F2.9°C
Winds 3.2 mph 5.1 kmh Calm Calm 1.0 mph ESE1.6 kmh ESE
Wind Gusts 6.0 mph9.7 kmh -- 2.0 mph3.2 kmh
Humidity 95% 86% 90%
Pressure 30.30 in1026.1 mb 29.82 in1009.8 mb -
Precipitation 0.01 in0.3 mm - -
Hour Temp Dew Point Humidity Winds Wind Gusts Pressure Precip Precip Rate Daily Precip Total
12:00 AM 36.1°F2.3°C 32.9°F0.5°C 88% Calm Calm -- 29.82 in1009.8 mb 0.00 in0.0 mm 0.00 in0.0 mm 0.00 in0.0 mm
12:15 AM 36.1°F2.3°C 32.9°F0.5°C 88% Calm Calm -- 29.82 in1009.8 mb 0.00 in0.0 mm 0.00 in0.0 mm 0.00 in0.0 mm
12:30 AM 36.1°F2.3°C 32.9°F0.5°C 88% 0.1 mph SW0.2 kmh SW 0.7 mph1.1 kmh 29.82 in1009.8 mb 0.00 in0.0 mm 0.00 in0.0 mm 0.00 in0.0 mm
12:45 AM 36.1°F2.3°C 32.9°F0.5°C 88% 0.4 mph SW0.6 kmh SW 2.2 mph3.5 kmh 29.82 in1009.8 mb 0.00 in0.0 mm 0.00 in0.0 mm 0.00 in0.0 mm
01:00 AM 36.0°F2.2°C 32.8°F0.4°C 88% 0.2 mph W0.3 kmh W 0.7 mph1.1 kmh 29.83 in1010.2 mb 0.00 in0.0 mm 0.00 in0.0 mm 0.00 in0.0 mm
01:15 AM 36.0°F2.2°C 32.8°F0.4°C 88% Calm Calm 0.7 mph1.1 kmh 29.83 in1010.2 mb 0.00 in0.0 mm 0.00 in0.0 mm 0.00 in0.0 mm
01:30 AM 36.0°F2.2°C 33.0°F0.6°C 89% Calm Calm -- 29.83 in1010.2 mb 0.00 in0.0 mm 0.00 in0.0 mm 0.00 in0.0 mm
01:45 AM 36.0°F2.2°C 33.0°F0.6°C 89% Calm Calm -- 29.84 in1010.5 mb 0.00 in0.0 mm 0.00 in0.0 mm 0.00 in0.0 mm
02:00 AM 36.0°F2.2°C 33.0°F0.6°C 89% Calm Calm -- 29.84 in1010.5 mb 0.00 in0.0 mm 0.00 in0.0 mm 0.00 in0.0 mm
02:15 AM 36.0°F2.2°C 33.0°F0.6°C 89% Calm Calm -- 29.85 in1010.8 mb 0.00 in0.0 mm 0.00 in0.0 mm 0.00 in0.0 mm
02:30 AM 36.0°F2.2°C 33.0°F0.6°C 89% Calm Calm -- 29.86 in1011.2 mb 0.00 in0.0 mm 0.00 in0.0 mm 0.00 in0.0 mm
02:45 AM 35.4°F1.9°C 32.8°F0.4°C 90% Calm Calm -- 29.86 in1011.2 mb 0.00 in0.0 mm 0.00 in0.0 mm 0.00 in0.0 mm
03:00 AM 36.0°F2.2°C 33.0°F0.6°C 89% Calm Calm -- 29.86 in1011.2 mb 0.00 in0.0 mm 0.00 in0.0 mm 0.00 in0.0 mm
03:15 AM 35.4°F1.9°C 32.8°F0.4°C 90% Calm Calm -- 29.87 in1011.5 mb 0.00 in0.0 mm 0.00 in0.0 mm 0.00 in0.0 mm
03:30 AM 35.4°F1.9°C 32.8°F0.4°C 90% Calm Calm -- 29.88 in1011.9 mb 0.00 in0.0 mm 0.00 in0.0 mm 0.00 in0.0 mm
03:45 AM 35.4°F1.9°C 32.8°F0.4°C 90% Calm Calm -- 29.88 in1011.9 mb 0.00 in0.0 mm 0.00 in0.0 mm 0.00 in0.0 mm
04:00 AM 35.1°F1.7°C 32.4°F0.2°C 90% Calm Calm -- 29.88 in1011.9 mb 0.00 in0.0 mm 0.00 in0.0 mm 0.00 in0.0 mm
04:15 AM 34.3°F1.3°C 31.4°F-0.3°C 89% Calm Calm -- 29.89 in1012.2 mb 0.00 in0.0 mm 0.00 in0.0 mm 0.00 in0.0 mm
04:30 AM 33.8°F1.0°C 30.9°F-0.6°C 89% Calm Calm -- 29.89 in1012.2 mb 0.00 in0.0 mm 0.00 in0.0 mm 0.00 in0.0 mm
04:45 AM 33.3°F0.7°C 30.7°F-0.7°C 90% Calm Calm -- 29.90 in1012.5 mb 0.00 in0.0 mm 0.00 in0.0 mm 0.00 in0.0 mm
05:00 AM 33.1°F0.6°C 30.5°F-0.8°C 90% Calm Calm -- 29.91 in1012.9 mb 0.00 in0.0 mm 0.00 in0.0 mm 0.00 in0.0 mm
05:15 AM 32.5°F0.3°C 29.9°F-1.2°C 90% Calm Calm -- 29.92 in1013.2 mb 0.00 in0.0 mm 0.00 in0.0 mm 0.00 in0.0 mm
05:30 AM 32.4°F0.2°C 29.8°F-1.2°C 90% Calm Calm -- 29.92 in1013.2 mb 0.00 in0.0 mm 0.00 in0.0 mm 0.00 in0.0 mm
05:45 AM 32.2°F0.1°C 29.6°F-1.3°C 90% Calm Calm -- 29.93 in1013.5 mb 0.00 in0.0 mm 0.00 in0.0 mm 0.00 in0.0 mm
06:00 AM 32.4°F0.2°C 29.8°F-1.2°C 90% Calm Calm -- 29.94 in1013.9 mb 0.00 in0.0 mm 0.00 in0.0 mm 0.00 in0.0 mm
06:15 AM 32.4°F0.2°C 29.8°F-1.2°C 90% Calm Calm -- 29.95 in1014.2 mb 0.00 in0.0 mm 0.00 in0.0 mm 0.00 in0.0 mm
06:30 AM 32.4°F0.2°C 29.8°F-1.2°C 90% Calm Calm -- 29.95 in1014.2 mb 0.00 in0.0 mm 0.00 in0.0 mm 0.00 in0.0 mm
06:45 AM 32.7°F0.4°C 30.1°F-1.1°C 90% Calm Calm -- 29.96 in1014.6 mb 0.00 in0.0 mm 0.00 in0.0 mm 0.00 in0.0 mm
07:00 AM 33.4°F0.8°C 31.1°F-0.5°C 91% Calm Calm -- 29.97 in1014.9 mb 0.00 in0.0 mm 0.00 in0.0 mm 0.00 in0.0 mm
07:15 AM 34.2°F1.2°C 31.5°F-0.3°C 90% Calm Calm -- 29.98 in1015.2 mb 0.00 in0.0 mm 0.00 in0.0 mm 0.00 in0.0 mm
07:30 AM 34.5°F1.4°C 31.9°F-0.1°C 90% Calm Calm -- 29.99 in1015.6 mb 0.00 in0.0 mm 0.00 in0.0 mm 0.00 in0.0 mm
07:45 AM 35.1°F1.7°C 32.4°F0.2°C 90% Calm Calm -- 30.00 in1015.9 mb 0.00 in0.0 mm 0.00 in0.0 mm 0.00 in0.0 mm
08:00 AM 35.4°F1.9°C 32.8°F0.4°C 90% Calm Calm -- 30.01 in1016.3 mb 0.00 in0.0 mm 0.00 in0.0 mm 0.00 in0.0 mm
08:15 AM 36.0°F2.2°C 33.0°F0.6°C 89% Calm Calm -- 30.01 in1016.3 mb 0.00 in0.0 mm 0.00 in0.0 mm 0.00 in0.0 mm
08:30 AM 36.3°F2.4°C 33.7°F0.9°C 90% Calm Calm -- 30.02 in1016.6 mb 0.00 in0.0 mm 0.00 in0.0 mm 0.00 in0.0 mm
08:45 AM 37.0°F2.8°C 34.4°F1.3°C 90% Calm Calm -- 30.02 in1016.6 mb 0.00 in0.0 mm 0.00 in0.0 mm 0.00 in0.0 mm
09:00 AM 37.6°F3.1°C 36.0°F2.2°C 94% Calm Calm -- 30.04 in1017.3 mb 0.00 in0.0 mm 0.00 in0.0 mm 0.00 in0.0 mm
09:15 AM 38.5°F3.6°C 37.2°F2.9°C 95% Calm Calm -- 30.04 in1017.3 mb 0.00 in0.0 mm 0.00 in0.0 mm 0.00 in0.0 mm
09:30 AM 39.0°F3.9°C 37.7°F3.2°C 95% 0.1 mph WSW0.2 kmh WSW 0.7 mph1.1 kmh 30.05 in1017.6 mb 0.00 in0.0 mm 0.00 in0.0 mm 0.00 in0.0 mm
09:45 AM 39.4°F4.1°C 37.8°F3.2°C 94% 0.6 mph WSW1.0 kmh WSW 0.7 mph1.1 kmh 30.06 in1017.9 mb 0.00 in0.0 mm 0.00 in0.0 mm 0.00 in0.0 mm
10:00 AM 39.9°F4.4°C 38.3°F3.5°C 94% 0.4 mph WSW0.6 kmh WSW 1.6 mph2.6 kmh 30.07 in1018.3 mb 0.00 in0.0 mm 0.00 in0.0 mm 0.00 in0.0 mm
10:15 AM 40.5°F4.7°C 38.9°F3.8°C 94% 0.9 mph WSW1.4 kmh WSW 2.2 mph3.5 kmh 30.07 in1018.3 mb 0.00 in0.0 mm 0.00 in0.0 mm 0.00 in0.0 mm
10:30 AM 41.2°F5.1°C 39.6°F4.2°C 94% 2.0 mph NW3.2 kmh NW 3.8 mph6.1 kmh 30.08 in1018.6 mb 0.00 in0.0 mm 0.00 in0.0 mm 0.00 in0.0 mm
10:45 AM 41.5°F5.3°C 39.9°F4.4°C 94% 2.4 mph W3.9 kmh W 3.8 mph6.1 kmh 30.09 in1019.0 mb 0.00 in0.0 mm 0.00 in0.0 mm 0.00 in0.0 mm
11:00 AM 41.9°F5.5°C 40.3°F4.6°C 94% 1.6 mph WSW2.6 kmh WSW 3.1 mph5.0 kmh 30.09 in1019.0 mb 0.00 in0.0 mm 0.00 in0.0 mm 0.00 in0.0 mm
11:15 AM 42.1°F5.6°C 40.5°F4.7°C 94% 1.9 mph WSW3.1 kmh WSW 3.1 mph5.0 kmh 30.09 in1019.0 mb 0.00 in0.0 mm 0.00 in0.0 mm 0.00 in0.0 mm
11:30 AM 42.3°F5.7°C 40.7°F4.8°C 94% 3.1 mph N5.0 kmh N 5.4 mph8.7 kmh 30.10 in1019.3 mb 0.00 in0.0 mm 0.00 in0.0 mm 0.00 in0.0 mm
11:45 AM 42.4°F5.8°C 40.8°F4.9°C 94% 1.7 mph N2.7 kmh N 3.8 mph6.1 kmh 30.10 in1019.3 mb 0.00 in0.0 mm 0.00 in0.0 mm 0.00 in0.0 mm
12:00 PM 42.6°F5.9°C 41.0°F5.0°C 94% 1.3 mph NW2.1 kmh NW 3.1 mph5.0 kmh 30.10 in1019.3 mb 0.00 in0.0 mm 0.00 in0.0 mm 0.00 in0.0 mm
12:15 PM 42.8°F6.0°C 41.2°F5.1°C 94% 2.2 mph SSE3.5 kmh SSE 5.4 mph8.7 kmh 30.10 in1019.3 mb 0.00 in0.0 mm 0.00 in0.0 mm 0.00 in0.0 mm
12:30 PM 43.3°F6.3°C 41.7°F5.4°C 94% 2.6 mph N4.2 kmh N 3.8 mph6.1 kmh 30.10 in1019.3 mb 0.00 in0.0 mm 0.00 in0.0 mm 0.00 in0.0 mm
12:45 PM 43.3°F6.3°C 41.7°F5.4°C 94% 2.0 mph N3.2 kmh N 3.1 mph5.0 kmh 30.11 in1019.6 mb 0.00 in0.0 mm 0.00 in0.0 mm 0.00 in0.0 mm
01:00 PM 43.3°F6.3°C 41.7°F5.4°C 94% 1.4 mph N2.3 kmh N 3.8 mph6.1 kmh 30.11 in1019.6 mb 0.00 in0.0 mm 0.00 in0.0 mm 0.00 in0.0 mm
01:15 PM 43.7°F6.5°C 42.1°F5.6°C 94% 1.1 mph NW1.8 kmh NW 2.2 mph3.5 kmh 30.11 in1019.6 mb 0.00 in0.0 mm 0.00 in0.0 mm 0.00 in0.0 mm
01:30 PM 44.2°F6.8°C 42.6°F5.9°C 94% 2.8 mph NNE4.5 kmh NNE 4.5 mph7.2 kmh 30.11 in1019.6 mb 0.00 in0.0 mm 0.00 in0.0 mm 0.00 in0.0 mm
01:45 PM 44.4°F6.9°C 42.8°F6.0°C 94% 2.6 mph N4.2 kmh N 3.8 mph6.1 kmh 30.11 in1019.6 mb 0.00 in0.0 mm 0.00 in0.0 mm 0.00 in0.0 mm
02:00 PM 44.4°F6.9°C 42.8°F6.0°C 94% 1.9 mph N3.1 kmh N 3.8 mph6.1 kmh 30.11 in1019.6 mb 0.00 in0.0 mm 0.00 in0.0 mm 0.00 in0.0 mm
02:15 PM 44.4°F6.9°C 42.8°F6.0°C 94% 1.9 mph NNE3.1 kmh NNE 3.1 mph5.0 kmh 30.12 in1020.0 mb 0.00 in0.0 mm 0.00 in0.0 mm 0.00 in0.0 mm
02:30 PM 44.4°F6.9°C 42.8°F6.0°C 94% 2.4 mph NNE3.9 kmh NNE 4.5 mph7.2 kmh 30.12 in1020.0 mb 0.00 in0.0 mm 0.00 in0.0 mm 0.00 in0.0 mm
02:45 PM 44.6°F7.0°C 42.7°F5.9°C 93% 0.8 mph NE1.3 kmh NE 1.6 mph2.6 kmh 30.12 in1020.0 mb 0.00 in0.0 mm 0.00 in0.0 mm 0.00 in0.0 mm
03:00 PM 44.6°F7.0°C 42.7°F5.9°C 93% 2.0 mph NE3.2 kmh NE 3.8 mph6.1 kmh 30.12 in1020.0 mb 0.00 in0.0 mm 0.00 in0.0 mm 0.00 in0.0 mm
03:15 PM 44.6°F7.0°C 42.7°F5.9°C 93% 1.7 mph NNW2.7 kmh NNW 3.8 mph6.1 kmh 30.14 in1020.7 mb 0.00 in0.0 mm 0.00 in0.0 mm 0.00 in0.0 mm
03:30 PM 44.6°F7.0°C 42.4°F5.8°C 92% 1.9 mph N3.1 kmh N 4.5 mph7.2 kmh 30.15 in1021.0 mb 0.00 in0.0 mm 0.00 in0.0 mm 0.00 in0.0 mm
03:45 PM 44.4°F6.9°C 42.2°F5.7°C 92% 2.0 mph NE3.2 kmh NE 3.8 mph6.1 kmh 30.15 in1021.0 mb 0.00 in0.0 mm 0.00 in0.0 mm 0.00 in0.0 mm
04:00 PM 44.4°F6.9°C 42.2°F5.7°C 92% 2.9 mph N4.7 kmh N 3.8 mph6.1 kmh 30.16 in1021.3 mb 0.00 in0.0 mm 0.00 in0.0 mm 0.00 in0.0 mm
04:15 PM 44.4°F6.9°C 42.0°F5.6°C 91% 2.7 mph NW4.3 kmh NW 4.5 mph7.2 kmh 30.17 in1021.7 mb 0.00 in0.0 mm 0.00 in0.0 mm 0.00 in0.0 mm
04:30 PM 44.4°F6.9°C 41.7°F5.4°C 90% 1.6 mph NNE2.6 kmh NNE 2.2 mph3.5 kmh 30.18 in1022.0 mb 0.00 in0.0 mm 0.00 in0.0 mm 0.00 in0.0 mm
04:45 PM 44.4°F6.9°C 41.7°F5.4°C 90% 2.0 mph NNE3.2 kmh NNE 3.8 mph6.1 kmh 30.19 in1022.4 mb 0.00 in0.0 mm 0.00 in0.0 mm 0.00 in0.0 mm
05:00 PM 44.1°F6.7°C 41.0°F5.0°C 89% 2.8 mph NW4.5 kmh NW 5.4 mph8.7 kmh 30.19 in1022.4 mb 0.00 in0.0 mm 0.00 in0.0 mm 0.00 in0.0 mm
05:15 PM 44.2°F6.8°C 41.2°F5.1°C 89% 3.2 mph N5.1 kmh N 5.4 mph8.7 kmh 30.20 in1022.7 mb 0.00 in0.0 mm 0.00 in0.0 mm 0.00 in0.0 mm
05:30 PM 44.1°F6.7°C 41.0°F5.0°C 89% 1.7 mph NNE2.7 kmh NNE 4.5 mph7.2 kmh 30.20 in1022.7 mb 0.00 in0.0 mm 0.00 in0.0 mm 0.00 in0.0 mm
05:45 PM 44.2°F6.8°C 40.9°F4.9°C 88% 2.6 mph W4.2 kmh W 3.8 mph6.1 kmh 30.21 in1023.0 mb 0.00 in0.0 mm 0.00 in0.0 mm 0.00 in0.0 mm
06:00 PM 44.4°F6.9°C 41.1°F5.1°C 88% 3.2 mph NE5.1 kmh NE 4.5 mph7.2 kmh 30.22 in1023.4 mb 0.00 in0.0 mm 0.00 in0.0 mm 0.00 in0.0 mm
06:15 PM 44.2°F6.8°C 40.6°F4.8°C 87% 2.8 mph NE4.5 kmh NE 5.4 mph8.7 kmh 30.21 in1023.0 mb 0.00 in0.0 mm 0.00 in0.0 mm 0.00 in0.0 mm
06:30 PM 44.1°F6.7°C 40.4°F4.7°C 87% 2.5 mph NW4.0 kmh NW 4.5 mph7.2 kmh 30.22 in1023.4 mb 0.00 in0.0 mm 0.00 in0.0 mm 0.00 in0.0 mm
06:45 PM 44.1°F6.7°C 40.4°F4.7°C 87% 2.7 mph NE4.3 kmh NE 3.8 mph6.1 kmh 30.22 in1023.4 mb 0.01 in0.3 mm 0.04 in1.0 mm 0.01 in0.3 mm
07:00 PM 44.1°F6.7°C 40.1°F4.5°C 86% 2.6 mph S4.2 kmh S 4.5 mph7.2 kmh 30.22 in1023.4 mb 0.01 in0.3 mm 0.00 in0.0 mm 0.01 in0.3 mm
07:15 PM 43.9°F6.6°C 40.0°F4.4°C 86% 2.5 mph NNE4.0 kmh NNE 6.0 mph9.7 kmh 30.22 in1023.4 mb 0.01 in0.3 mm 0.00 in0.0 mm 0.01 in0.3 mm
07:30 PM 43.7°F6.5°C 39.8°F4.3°C 86% 0.6 mph E1.0 kmh E 1.6 mph2.6 kmh 30.24 in1024.0 mb 0.01 in0.3 mm 0.00 in0.0 mm 0.01 in0.3 mm
07:45 PM 43.7°F6.5°C 39.8°F4.3°C 86% 1.1 mph NE1.8 kmh NE 2.2 mph3.5 kmh 30.24 in1024.0 mb 0.00 in0.0 mm 0.00 in0.0 mm 0.01 in0.3 mm
08:00 PM 43.7°F6.5°C 39.8°F4.3°C 86% 1.3 mph NW2.1 kmh NW 3.8 mph6.1 kmh 30.25 in1024.4 mb 0.00 in0.0 mm 0.00 in0.0 mm 0.01 in0.3 mm
08:15 PM 43.5°F6.4°C 39.6°F4.2°C 86% 2.0 mph WSW3.2 kmh WSW 3.8 mph6.1 kmh 30.25 in1024.4 mb 0.00 in0.0 mm 0.00 in0.0 mm 0.01 in0.3 mm
08:30 PM 43.7°F6.5°C 39.8°F4.3°C 86% 2.2 mph S3.5 kmh S 3.8 mph6.1 kmh 30.25 in1024.4 mb 0.00 in0.0 mm 0.00 in0.0 mm 0.01 in0.3 mm
08:45 PM 43.5°F6.4°C 39.6°F4.2°C 86% 0.3 mph N0.5 kmh N 1.6 mph2.6 kmh 30.26 in1024.7 mb 0.00 in0.0 mm 0.00 in0.0 mm 0.01 in0.3 mm
09:00 PM 43.5°F6.4°C 39.6°F4.2°C 86% 1.3 mph SW2.1 kmh SW 2.2 mph3.5 kmh 30.27 in1025.1 mb 0.00 in0.0 mm 0.00 in0.0 mm 0.01 in0.3 mm
09:15 PM 43.5°F6.4°C 39.9°F4.4°C 87% 1.3 mph NE2.1 kmh NE 3.1 mph5.0 kmh 30.27 in1025.1 mb 0.00 in0.0 mm 0.00 in0.0 mm 0.01 in0.3 mm
09:30 PM 43.5°F6.4°C 39.9°F4.4°C 87% 0.5 mph NNE0.8 kmh NNE 1.6 mph2.6 kmh 30.27 in1025.1 mb 0.00 in0.0 mm 0.00 in0.0 mm 0.01 in0.3 mm
09:45 PM 43.5°F6.4°C 39.6°F4.2°C 86% 0.2 mph W0.3 kmh W 1.6 mph2.6 kmh 30.27 in1025.1 mb 0.00 in0.0 mm 0.00 in0.0 mm 0.01 in0.3 mm
10:00 PM 43.2°F6.2°C 39.3°F4.1°C 86% 0.1 mph S0.2 kmh S 0.7 mph1.1 kmh 30.28 in1025.4 mb 0.00 in0.0 mm 0.00 in0.0 mm 0.01 in0.3 mm
10:15 PM 43.2°F6.2°C 39.3°F4.1°C 86% 0.5 mph SW0.8 kmh SW 1.6 mph2.6 kmh 30.28 in1025.4 mb 0.00 in0.0 mm 0.00 in0.0 mm 0.01 in0.3 mm
10:30 PM 43.2°F6.2°C 39.6°F4.2°C 87% 1.9 mph SW3.1 kmh SW 3.1 mph5.0 kmh 30.30 in1026.1 mb 0.00 in0.0 mm 0.00 in0.0 mm 0.01 in0.3 mm
10:45 PM 43.2°F6.2°C 39.6°F4.2°C 87% 2.8 mph W4.5 kmh W 4.5 mph7.2 kmh 30.30 in1026.1 mb 0.00 in0.0 mm 0.00 in0.0 mm 0.01 in0.3 mm
11:00 PM 43.2°F6.2°C 39.6°F4.2°C 87% 2.4 mph NNW3.9 kmh NNW 3.8 mph6.1 kmh 30.29 in1025.7 mb 0.00 in0.0 mm 0.00 in0.0 mm 0.01 in0.3 mm
11:15 PM 43.0°F6.1°C 39.4°F4.1°C 87% 1.3 mph N2.1 kmh N 2.2 mph3.5 kmh 30.29 in1025.7 mb 0.00 in0.0 mm 0.00 in0.0 mm 0.01 in0.3 mm
11:30 PM 43.0°F6.1°C 39.4°F4.1°C 87% 0.8 mph N1.3 kmh N 1.6 mph2.6 kmh 30.28 in1025.4 mb 0.00 in0.0 mm 0.00 in0.0 mm 0.01 in0.3 mm
11:45 PM 42.8°F6.0°C 39.2°F4.0°C 87% Calm Calm 0.7 mph1.1 kmh 30.29 in1025.7 mb 0.00 in0.0 mm 0.00 in0.0 mm 0.01 in0.3 mm